createdAt,value
2023-04-13T00:02:58.916Z,10.75
2023-04-13T00:06:03.126Z,10.75
2023-04-13T00:09:05.969Z,10.75
2023-04-13T00:12:11.040Z,10.67
2023-04-13T00:15:19.693Z,10.72
2023-04-13T00:18:22.160Z,10.69
2023-04-13T00:21:25.959Z,10.62
2023-04-13T00:24:29.878Z,10.61
2023-04-13T00:27:32.731Z,10.58
2023-04-13T00:30:35.522Z,10.54
2023-04-13T00:33:38.151Z,10.51
2023-04-13T00:36:41.234Z,10.47
2023-04-13T00:39:46.237Z,10.43
2023-04-13T00:42:50.868Z,10.42
2023-04-13T00:45:53.695Z,10.39
2023-04-13T00:48:58.296Z,10.35
2023-04-13T00:52:05.041Z,10.25
2023-04-13T00:55:08.008Z,10.24
2023-04-13T00:58:10.957Z,10.10
2023-04-13T01:01:13.623Z,10.17
2023-04-13T01:04:20.014Z,10.17
2023-04-13T01:07:37.324Z,10.17
2023-04-13T01:10:50.579Z,10.16
2023-04-13T01:14:07.941Z,10.13
2023-04-13T01:17:21.865Z,10.10
2023-04-13T01:20:27.799Z,10.07
2023-04-13T01:23:46.381Z,10.06
2023-04-13T01:27:11.805Z,10.05
2023-04-13T01:30:16.936Z,10.06
2023-04-13T01:33:20.951Z,10.07
2023-04-13T01:36:23.722Z,10.07
2023-04-13T01:39:32.165Z,10.09
2023-04-13T01:42:34.805Z,10.10
2023-04-13T01:46:04.219Z,10.08
2023-04-13T01:49:10.391Z,10.06
2023-04-13T01:52:14.256Z,10.07
2023-04-13T01:55:18.089Z,10.05
2023-04-13T01:58:20.975Z,10.05
2023-04-13T02:01:25.422Z,10.05
2023-04-13T02:04:28.382Z,10.05
2023-04-13T02:07:30.895Z,10.02
2023-04-13T02:10:34.903Z,10.00
2023-04-13T02:13:37.800Z,9.95
2023-04-13T02:16:40.488Z,9.95
2023-04-13T02:19:44.226Z,9.99
2023-04-13T02:22:46.868Z,9.98
2023-04-13T02:25:50.840Z,9.91
2023-04-13T02:28:53.506Z,9.91
2023-04-13T02:31:56.238Z,9.82
2023-04-13T02:35:00.147Z,9.73
2023-04-13T02:38:04.092Z,9.73
2023-04-13T02:41:06.792Z,9.80
2023-04-13T02:44:09.395Z,9.88
2023-04-13T02:47:12.079Z,9.90
2023-04-13T02:50:14.728Z,9.90
2023-04-13T02:53:17.693Z,9.93
2023-04-13T02:56:31.081Z,9.90
2023-04-13T02:59:34.104Z,9.83
2023-04-13T03:02:38.423Z,9.80
2023-04-13T03:05:41.077Z,9.82
2023-04-13T03:08:43.624Z,9.82
2023-04-13T03:11:46.345Z,9.81
2023-04-13T03:14:49.849Z,9.83
2023-04-13T03:17:53.185Z,9.85
2023-04-13T03:20:56.011Z,9.77
2023-04-13T03:23:59.280Z,9.76
2023-04-13T03:27:02.698Z,9.72
2023-04-13T03:30:06.296Z,9.71
2023-04-13T03:33:08.872Z,9.71
2023-04-13T03:36:11.514Z,9.70
2023-04-13T03:39:14.194Z,9.69
2023-04-13T03:42:16.916Z,9.68
2023-04-13T03:45:19.593Z,9.73
2023-04-13T03:48:22.757Z,9.75
2023-04-13T03:51:25.980Z,9.78
2023-04-13T03:54:28.567Z,9.81
2023-04-13T03:57:31.397Z,9.80
2023-04-13T04:00:34.076Z,9.82
2023-04-13T04:03:38.462Z,9.86
2023-04-13T04:06:41.222Z,9.85
2023-04-13T04:09:46.375Z,9.84
2023-04-13T04:12:49.052Z,9.82
2023-04-13T04:15:52.099Z,9.85
2023-04-13T04:18:54.749Z,9.87
2023-04-13T04:21:58.220Z,9.89
2023-04-13T04:25:01.933Z,9.93
2023-04-13T04:28:06.819Z,9.95
2023-04-13T04:31:12.825Z,9.96
2023-04-13T04:34:16.940Z,9.95
2023-04-13T04:37:23.443Z,9.94
2023-04-13T04:40:28.018Z,9.99
2023-04-13T04:43:30.690Z,10.04
2023-04-13T04:46:33.302Z,10.08
2023-04-13T04:49:38.274Z,10.08
2023-04-13T04:52:41.826Z,10.10
2023-04-13T04:55:44.536Z,10.14
2023-04-13T04:58:47.140Z,10.15
2023-04-13T05:01:56.201Z,10.20
2023-04-13T05:04:58.913Z,10.22
2023-04-13T05:08:01.614Z,10.24
2023-04-13T05:11:07.599Z,10.26
2023-04-13T05:14:10.363Z,10.29
2023-04-13T05:17:13.057Z,10.29
2023-04-13T05:20:15.828Z,10.29
2023-04-13T05:23:18.414Z,10.29
2023-04-13T05:26:20.992Z,10.30
2023-04-13T05:29:23.572Z,10.26
2023-04-13T05:32:26.230Z,10.27
2023-04-13T05:35:28.927Z,10.24
2023-04-13T05:38:31.896Z,10.24
2023-04-13T05:41:34.580Z,10.22
2023-04-13T05:44:37.195Z,10.15
2023-04-13T05:47:40.395Z,10.15
2023-04-13T05:50:43.815Z,10.16
2023-04-13T05:53:46.809Z,10.17
2023-04-13T05:56:49.406Z,10.20
2023-04-13T05:59:53.447Z,10.16
2023-04-13T06:02:57.915Z,10.16
2023-04-13T06:06:01.471Z,10.19
2023-04-13T06:09:05.675Z,10.19
2023-04-13T06:12:09.152Z,10.19
2023-04-13T06:15:11.996Z,10.23
2023-04-13T06:18:15.826Z,10.26
2023-04-13T06:21:18.820Z,10.27
2023-04-13T06:24:21.855Z,10.25
2023-04-13T06:27:33.684Z,10.23
2023-04-13T06:30:37.292Z,10.21
2023-04-13T06:33:39.920Z,10.25
2023-04-13T06:36:43.303Z,10.29
2023-04-13T06:39:46.151Z,10.32
2023-04-13T06:42:49.158Z,10.14
2023-04-13T06:45:58.747Z,10.18
2023-04-13T06:49:01.621Z,10.17
2023-04-13T06:52:04.780Z,10.15
2023-04-13T06:55:07.773Z,10.13
2023-04-13T06:58:11.497Z,10.16
2023-04-13T07:01:14.214Z,10.11
2023-04-13T07:04:16.944Z,10.11
2023-04-13T07:07:19.597Z,10.07
2023-04-13T07:10:22.400Z,10.06
2023-04-13T07:13:25.862Z,10.10
2023-04-13T07:16:28.717Z,10.10
2023-04-13T07:19:32.606Z,10.08
2023-04-13T07:22:35.667Z,10.08
2023-04-13T07:25:38.625Z,10.07
2023-04-13T07:28:41.801Z,10.10
2023-04-13T07:31:44.497Z,10.11
2023-04-13T07:34:47.627Z,10.12
2023-04-13T07:37:52.891Z,10.10
2023-04-13T07:40:58.723Z,10.07
2023-04-13T07:44:01.488Z,10.01
2023-04-13T07:47:04.214Z,10.09
2023-04-13T07:50:10.206Z,10.20
2023-04-13T07:53:12.963Z,10.36
2023-04-13T07:56:15.734Z,10.44
2023-04-13T07:59:18.312Z,10.49
2023-04-13T08:02:22.756Z,10.51
2023-04-13T08:05:25.673Z,10.51
2023-04-13T08:08:29.515Z,10.48
2023-04-13T08:11:32.793Z,10.55
2023-04-13T08:14:35.569Z,10.62
2023-04-13T08:17:42.000Z,10.68
2023-04-13T08:20:45.708Z,10.76
2023-04-13T08:23:48.259Z,10.79
2023-04-13T08:26:53.447Z,10.76
2023-04-13T08:29:56.970Z,10.76
2023-04-13T08:32:59.836Z,10.77
2023-04-13T08:36:04.197Z,10.75
2023-04-13T08:39:10.281Z,10.76
2023-04-13T08:42:13.374Z,10.79
2023-04-13T08:45:16.366Z,10.90
2023-04-13T08:48:19.707Z,10.92
2023-04-13T08:51:22.832Z,10.87
2023-04-13T08:54:28.658Z,10.91
2023-04-13T08:57:32.374Z,10.89
2023-04-13T09:00:36.200Z,10.87
2023-04-13T09:03:51.189Z,10.72
2023-04-13T09:06:54.325Z,10.67
2023-04-13T09:09:59.163Z,10.65
2023-04-13T09:13:01.885Z,10.74
2023-04-13T09:16:05.344Z,10.84
2023-04-13T09:19:08.873Z,10.89
2023-04-13T09:22:16.327Z,10.93
2023-04-13T09:25:25.715Z,10.91
2023-04-13T09:28:28.309Z,11.01
2023-04-13T09:31:34.760Z,11.10
2023-04-13T09:34:37.679Z,11.15
2023-04-13T09:37:42.667Z,11.17
2023-04-13T09:40:49.553Z,11.24
2023-04-13T09:43:52.194Z,11.16
2023-04-13T09:46:59.854Z,11.07
2023-04-13T09:50:04.958Z,11.06
2023-04-13T09:53:10.847Z,11.14
2023-04-13T09:56:14.855Z,11.22
2023-04-13T09:59:19.992Z,11.16
2023-04-13T10:02:23.535Z,11.18
2023-04-13T10:05:28.915Z,11.17
2023-04-13T10:08:38.038Z,11.27
2023-04-13T10:11:46.785Z,11.42
2023-04-13T10:14:55.932Z,11.45
2023-04-13T10:18:33.973Z,11.62
2023-04-13T10:21:40.068Z,11.48
2023-04-13T10:24:43.905Z,11.33
2023-04-13T10:27:57.138Z,11.41
2023-04-13T10:31:02.676Z,11.37
2023-04-13T10:34:10.643Z,11.38
2023-04-13T10:37:19.861Z,11.31
2023-04-13T10:40:22.801Z,11.21
2023-04-13T10:43:29.830Z,11.18
2023-04-13T10:46:36.243Z,11.19
2023-04-13T10:49:39.319Z,11.21
2023-04-13T10:52:42.043Z,11.15
2023-04-13T10:55:44.616Z,11.14
2023-04-13T10:58:54.268Z,11.14
2023-04-13T11:01:56.924Z,11.06
2023-04-13T11:04:59.817Z,11.01
2023-04-13T11:08:04.733Z,10.94
2023-04-13T11:11:07.431Z,10.88
2023-04-13T11:14:10.063Z,10.86
2023-04-13T11:17:18.585Z,10.87
2023-04-13T11:20:31.386Z,10.92
2023-04-13T11:23:35.139Z,10.90
2023-04-13T11:26:38.675Z,10.95
2023-04-13T11:29:41.532Z,10.97
2023-04-13T11:32:44.824Z,10.96
2023-04-13T11:35:50.306Z,10.95
2023-04-13T11:38:54.897Z,10.97
2023-04-13T11:41:58.390Z,10.98
2023-04-13T11:45:01.217Z,11.03
2023-04-13T11:48:06.402Z,11.07
2023-04-13T11:51:11.292Z,11.14
2023-04-13T11:54:14.730Z,11.20
2023-04-13T11:57:18.354Z,11.25
2023-04-13T12:00:28.370Z,11.26
2023-04-13T12:03:47.030Z,11.17
2023-04-13T12:06:58.329Z,11.13
2023-04-13T12:10:05.521Z,11.10
2023-04-13T12:13:19.887Z,11.08
2023-04-13T12:19:43.808Z,11.23
2023-04-13T12:22:57.644Z,11.21
2023-04-13T12:26:25.937Z,11.18
2023-04-13T12:29:30.785Z,11.18
2023-04-13T12:32:39.962Z,11.23
2023-04-13T12:35:42.656Z,11.23
2023-04-13T12:38:46.020Z,11.30
2023-04-13T12:41:48.586Z,11.30
2023-04-13T12:44:51.760Z,11.33
2023-04-13T12:47:54.448Z,11.45
2023-04-13T12:50:57.226Z,11.54
2023-04-13T12:53:59.858Z,11.60
2023-04-13T12:57:02.600Z,11.64
2023-04-13T13:00:10.702Z,11.58
2023-04-13T13:03:14.435Z,11.58
2023-04-13T13:06:17.697Z,11.66
2023-04-13T13:09:20.806Z,11.63
2023-04-13T13:12:23.897Z,11.63
2023-04-13T13:15:26.828Z,11.54
2023-04-13T13:18:42.714Z,11.52
2023-04-13T13:21:52.297Z,11.55
2023-04-13T13:24:55.106Z,11.49
2023-04-13T13:31:08.393Z,11.57
2023-04-13T13:34:11.033Z,11.61
2023-04-13T13:37:14.202Z,11.61
2023-04-13T13:40:30.213Z,11.63
2023-04-13T13:43:32.989Z,11.72
2023-04-13T13:46:36.712Z,11.82
2023-04-13T13:49:39.454Z,11.92
2023-04-13T13:52:55.335Z,11.89
2023-04-13T13:56:04.853Z,11.78
2023-04-13T13:59:07.422Z,11.85
2023-04-13T14:02:10.512Z,11.89
2023-04-13T14:05:18.414Z,12.00
2023-04-13T14:08:21.145Z,12.08
2023-04-13T14:11:24.325Z,12.11
2023-04-13T14:14:27.020Z,12.16
2023-04-13T14:17:29.689Z,12.33
2023-04-13T14:20:34.324Z,12.49
2023-04-13T14:23:38.199Z,12.59
2023-04-13T14:26:41.870Z,12.65
2023-04-13T14:29:46.732Z,12.74
2023-04-13T14:32:49.567Z,12.78
2023-04-13T14:35:52.188Z,12.72
2023-04-13T14:38:55.064Z,12.59
2023-04-13T14:41:57.735Z,12.47
2023-04-13T14:45:00.367Z,12.49
2023-04-13T14:48:03.159Z,12.51
2023-04-13T14:51:07.255Z,12.48
2023-04-13T14:54:10.006Z,12.30
2023-04-13T14:57:12.972Z,12.23
2023-04-13T15:00:21.682Z,12.21
2023-04-13T15:03:24.943Z,12.04
2023-04-13T15:06:28.303Z,11.93
2023-04-13T15:09:31.888Z,11.99
2023-04-13T15:12:35.082Z,12.01
2023-04-13T15:15:40.910Z,12.00
2023-04-13T15:18:43.885Z,11.97
2023-04-13T15:21:47.072Z,11.96
2023-04-13T15:24:49.940Z,11.98
2023-04-13T15:27:54.631Z,12.02
2023-04-13T15:30:57.488Z,12.04
2023-04-13T15:34:00.407Z,12.07
2023-04-13T15:37:03.141Z,12.14
2023-04-13T15:40:07.903Z,12.21
2023-04-13T15:43:12.038Z,12.19
2023-04-13T15:46:14.729Z,12.13
2023-04-13T15:49:17.376Z,12.05
2023-04-13T15:52:20.249Z,11.96
2023-04-13T15:55:22.898Z,11.95
2023-04-13T15:58:25.686Z,11.99
2023-04-13T16:01:30.884Z,12.01
2023-04-13T16:04:33.828Z,12.02
2023-04-13T16:07:38.247Z,12.02
2023-04-13T16:10:42.178Z,11.99
2023-04-13T16:13:48.609Z,11.98
2023-04-13T16:17:00.098Z,11.93
2023-04-13T16:20:31.206Z,11.89
2023-04-13T16:23:34.057Z,11.86
2023-04-13T16:26:39.297Z,11.86
2023-04-13T16:29:43.569Z,11.83
2023-04-13T16:32:47.216Z,11.79
2023-04-13T16:35:51.496Z,11.77
2023-04-13T16:38:54.496Z,11.74
2023-04-13T16:41:57.091Z,11.70
2023-04-13T16:45:00.842Z,11.69
2023-04-13T16:48:04.979Z,11.71
2023-04-13T16:51:10.368Z,11.69
2023-04-13T16:54:18.049Z,11.68
2023-04-13T16:57:21.294Z,11.67
2023-04-13T17:00:24.499Z,11.67
2023-04-13T17:03:27.925Z,11.68
2023-04-13T17:06:31.921Z,11.69
2023-04-13T17:09:37.326Z,11.69
2023-04-13T17:12:40.899Z,11.68
2023-04-13T17:15:43.663Z,11.64
2023-04-13T17:18:46.773Z,11.62
2023-04-13T17:21:51.543Z,11.58
2023-04-13T17:24:55.316Z,11.59
2023-04-13T17:28:00.288Z,11.57
2023-04-13T17:31:06.098Z,11.56
2023-04-13T17:34:09.616Z,11.57
2023-04-13T17:37:13.017Z,11.57
2023-04-13T17:40:20.531Z,11.59
2023-04-13T17:43:24.163Z,11.59
2023-04-13T17:46:30.013Z,11.60
2023-04-13T17:49:33.950Z,11.60
2023-04-13T17:52:37.216Z,11.61
2023-04-13T17:55:40.318Z,11.60
2023-04-13T17:58:43.192Z,11.60
2023-04-13T18:01:46.409Z,11.61
2023-04-13T18:04:49.783Z,11.60
2023-04-13T18:07:52.448Z,11.55
2023-04-13T18:10:56.723Z,11.60
2023-04-13T18:14:03.258Z,11.49
2023-04-13T18:17:08.318Z,11.60
2023-04-13T18:20:12.138Z,11.57
2023-04-13T18:23:14.992Z,11.59
2023-04-13T18:26:20.211Z,11.59
2023-04-13T18:29:22.994Z,11.58
2023-04-13T18:32:26.229Z,11.58
2023-04-13T18:35:29.742Z,11.57
2023-04-13T18:38:35.537Z,11.56
2023-04-13T18:41:40.203Z,11.54
2023-04-13T18:44:44.468Z,11.52
2023-04-13T18:47:47.210Z,11.52
2023-04-13T18:50:50.094Z,11.51
2023-04-13T18:53:53.079Z,11.48
2023-04-13T18:56:55.711Z,11.45
2023-04-13T18:59:58.818Z,11.43
2023-04-13T19:03:01.766Z,11.43
2023-04-13T19:06:05.636Z,11.42
2023-04-13T19:09:08.574Z,11.40
2023-04-13T19:12:11.562Z,11.37
2023-04-13T19:15:14.222Z,11.35
2023-04-13T19:18:17.309Z,11.35
2023-04-13T19:21:23.884Z,11.35
2023-04-13T19:24:26.677Z,11.32
2023-04-13T19:27:31.841Z,11.29
2023-04-13T19:30:34.899Z,11.29
2023-04-13T19:33:38.273Z,11.29
2023-04-13T19:36:43.945Z,11.30
2023-04-13T19:39:47.228Z,11.29
2023-04-13T19:42:49.980Z,11.22
2023-04-13T19:45:54.348Z,11.29
2023-04-13T19:48:58.676Z,11.27
2023-04-13T19:52:02.001Z,11.23
2023-04-13T19:55:16.133Z,11.21
2023-04-13T19:58:19.647Z,11.16
2023-04-13T20:01:22.511Z,11.13
2023-04-13T20:04:25.867Z,11.09
2023-04-13T20:07:28.816Z,11.03
2023-04-13T20:10:33.298Z,10.97
2023-04-13T20:13:36.260Z,10.89
2023-04-13T20:16:39.099Z,10.84
2023-04-13T20:19:42.559Z,10.79
2023-04-13T20:22:45.374Z,10.77
2023-04-13T20:25:48.033Z,10.74
2023-04-13T20:28:50.694Z,10.74
2023-04-13T20:31:53.893Z,10.72
2023-04-13T20:34:56.546Z,10.68
2023-04-13T20:38:04.767Z,10.60
2023-04-13T20:41:07.496Z,10.55
2023-04-13T20:44:10.769Z,10.52
2023-04-13T20:47:17.966Z,10.46
2023-04-13T20:50:23.002Z,10.46
2023-04-13T20:53:35.798Z,10.42
2023-04-13T20:56:38.366Z,10.35
2023-04-13T20:59:40.931Z,10.36
2023-04-13T21:02:44.487Z,10.36
2023-04-13T21:05:48.044Z,10.30
2023-04-13T21:08:52.861Z,10.32
2023-04-13T21:11:56.995Z,10.34
2023-04-13T21:15:00.664Z,10.36
2023-04-13T21:18:03.343Z,10.38
2023-04-13T21:21:06.843Z,10.39
2023-04-13T21:24:09.613Z,10.38
2023-04-13T21:27:12.390Z,10.38
2023-04-13T21:30:15.125Z,10.36
2023-04-13T21:33:17.708Z,10.36
2023-04-13T21:39:37.483Z,10.35
2023-04-13T21:42:41.015Z,10.29
2023-04-13T21:45:43.686Z,10.21
2023-04-13T21:48:46.352Z,10.16
2023-04-13T21:51:50.202Z,10.07
2023-04-13T21:54:52.836Z,9.96
2023-04-13T21:57:55.624Z,9.91
2023-04-13T22:00:58.283Z,9.82
2023-04-13T22:04:01.004Z,9.79
2023-04-13T22:07:03.742Z,9.73
2023-04-13T22:10:07.066Z,9.64
2023-04-13T22:13:09.691Z,9.61
2023-04-13T22:16:12.963Z,9.64
2023-04-13T22:19:16.180Z,9.68
2023-04-13T22:22:18.779Z,9.71
2023-04-13T22:25:25.324Z,9.76
2023-04-13T22:28:29.140Z,9.78
2023-04-13T22:31:31.881Z,9.79
2023-04-13T22:34:34.759Z,9.81
2023-04-13T22:37:37.359Z,9.84
2023-04-13T22:40:40.086Z,9.86
2023-04-13T22:43:42.758Z,9.85
2023-04-13T22:46:45.557Z,9.86
2023-04-13T22:49:48.162Z,9.87
2023-04-13T22:52:51.003Z,9.88
2023-04-13T22:55:54.037Z,9.90
2023-04-13T22:58:56.720Z,9.90
2023-04-13T23:02:01.309Z,9.91
2023-04-13T23:05:04.359Z,9.92
2023-04-13T23:08:07.058Z,9.92
2023-04-13T23:11:10.066Z,9.92
2023-04-13T23:14:12.848Z,9.91
2023-04-13T23:17:15.505Z,9.90
2023-04-13T23:20:18.245Z,9.90
2023-04-13T23:23:20.998Z,9.90
2023-04-13T23:26:23.697Z,9.89
2023-04-13T23:29:26.345Z,9.88
2023-04-13T23:32:28.968Z,9.86
2023-04-13T23:35:31.604Z,9.87
2023-04-13T23:38:34.180Z,9.84
2023-04-13T23:41:36.883Z,9.83
2023-04-13T23:44:39.540Z,9.83
2023-04-13T23:47:42.367Z,9.83
2023-04-13T23:50:44.978Z,9.83
2023-04-13T23:53:47.971Z,9.82
2023-04-13T23:56:50.613Z,9.83
2023-04-13T23:59:57.358Z,9.83
